createdAt,value
2023-05-13T00:03:10.435Z,97634.00
2023-05-13T00:07:13.882Z,97636.94
2023-05-13T00:11:17.234Z,97637.59
2023-05-13T00:15:20.802Z,97641.22
2023-05-13T00:19:26.064Z,97630.75
2023-05-13T00:23:29.561Z,97634.34
2023-05-13T00:27:33.169Z,97634.34
2023-05-13T00:31:37.752Z,97629.13
2023-05-13T00:35:42.768Z,97636.31
2023-05-13T00:39:46.031Z,97637.13
2023-05-13T00:43:49.455Z,97627.03
2023-05-13T00:47:53.949Z,97633.88
2023-05-13T00:51:58.979Z,97636.66
2023-05-13T00:56:02.615Z,97638.97
2023-05-13T01:08:37.335Z,97645.84
2023-05-13T01:12:43.859Z,97645.84
2023-05-13T01:16:51.769Z,97635.56
2023-05-13T01:20:56.837Z,97639.28
2023-05-13T01:25:02.052Z,97635.72
2023-05-13T01:29:05.437Z,97639.28
2023-05-13T01:33:09.016Z,97636.06
2023-05-13T01:37:12.843Z,97635.06
2023-05-13T01:41:18.371Z,97632.44
2023-05-13T01:45:21.947Z,97635.06
2023-05-13T01:49:26.007Z,97639.66
2023-05-13T01:53:29.658Z,97630.84
2023-05-13T01:57:34.812Z,97627.28
2023-05-13T02:01:38.300Z,97620.78
2023-05-13T02:05:42.169Z,97632.78
2023-05-13T02:09:45.791Z,97632.78
2023-05-13T02:13:51.159Z,97636.41
2023-05-13T02:17:54.929Z,97636.06
2023-05-13T02:21:58.418Z,97637.69
2023-05-13T02:26:01.841Z,97631.47
2023-05-13T02:30:08.947Z,97631.47
2023-05-13T02:34:12.520Z,97634.44
2023-05-13T02:38:15.989Z,97644.53
2023-05-13T02:42:19.671Z,97632.44
2023-05-13T02:46:24.783Z,97627.88
2023-05-13T02:50:28.463Z,97633.09
2023-05-13T02:54:31.991Z,97624.63
2023-05-13T02:58:37.173Z,97628.84
2023-05-13T03:02:42.004Z,97634.91
2023-05-13T03:06:45.899Z,97631.47
2023-05-13T03:10:49.359Z,97628.84
2023-05-13T03:14:52.862Z,97632.44
2023-05-13T03:18:58.194Z,97627.22
2023-05-13T03:23:01.508Z,97642.06
2023-05-13T03:27:05.008Z,97636.41
2023-05-13T03:31:08.401Z,97632.78
2023-05-13T03:35:13.778Z,97635.06
2023-05-13T03:39:17.186Z,97639.47
2023-05-13T03:43:20.900Z,97646.34
2023-05-13T03:47:24.668Z,97638.00
2023-05-13T03:51:29.643Z,97643.22
2023-05-13T03:55:33.373Z,97643.06
2023-05-13T03:59:36.718Z,97649.56
2023-05-13T04:03:40.179Z,97653.63
2023-05-13T04:07:45.600Z,97643.50
2023-05-13T04:11:49.213Z,97653.56
2023-05-13T04:15:54.772Z,97657.50
2023-05-13T04:19:58.163Z,97660.38
2023-05-13T04:24:03.319Z,97664.13
2023-05-13T04:28:07.801Z,97661.16
2023-05-13T04:32:11.077Z,97661.47
2023-05-13T04:36:15.255Z,97664.38
2023-05-13T04:40:21.121Z,97665.31
2023-05-13T04:44:25.109Z,97671.00
2023-05-13T04:48:28.618Z,97680.78
2023-05-13T04:52:32.326Z,97676.84
2023-05-13T04:56:37.253Z,97684.97
2023-05-13T05:00:41.207Z,97688.91
2023-05-13T05:04:44.621Z,97681.50
2023-05-13T05:08:47.791Z,97681.00
2023-05-13T05:12:52.953Z,97683.72
2023-05-13T05:16:56.733Z,97677.97
2023-05-13T05:21:02.451Z,97685.94
2023-05-13T05:25:07.095Z,97671.69
2023-05-13T05:29:12.250Z,97679.84
2023-05-13T05:33:15.927Z,97691.41
2023-05-13T05:37:19.635Z,97685.00
2023-05-13T05:41:23.255Z,97691.50
2023-05-13T05:45:28.538Z,97701.28
2023-05-13T05:49:32.037Z,97697.94
2023-05-13T05:53:37.905Z,97687.75
2023-05-13T05:57:41.332Z,97691.63
2023-05-13T06:01:46.253Z,97691.09
2023-05-13T06:05:50.029Z,97687.94
2023-05-13T06:09:53.488Z,97691.47
2023-05-13T06:13:57.771Z,97689.41
2023-05-13T06:18:06.002Z,97700.63
2023-05-13T06:22:09.291Z,97691.34
2023-05-13T06:26:12.871Z,97697.63
2023-05-13T06:30:16.760Z,97696.16
2023-05-13T06:34:21.973Z,97697.94
2023-05-13T06:38:25.583Z,97702.16
2023-05-13T06:42:29.024Z,97709.00
2023-05-13T06:46:32.832Z,97705.34
2023-05-13T06:50:37.865Z,97712.81
2023-05-13T06:54:41.312Z,97708.97
2023-05-13T06:58:44.744Z,97720.47
2023-05-13T07:02:49.212Z,97727.09
2023-05-13T07:06:55.180Z,97719.03
2023-05-13T07:10:58.681Z,97717.66
2023-05-13T07:15:02.250Z,97709.19
2023-05-13T07:19:05.961Z,97701.59
2023-05-13T07:23:10.789Z,97714.56
2023-05-13T07:27:14.042Z,97712.78
2023-05-13T07:31:17.494Z,97710.63
2023-05-13T07:35:21.331Z,97725.44
2023-05-13T07:39:26.428Z,97720.75
2023-05-13T07:43:29.812Z,97715.94
2023-05-13T07:47:33.899Z,97720.44
2023-05-13T07:51:38.002Z,97726.13
2023-05-13T07:55:42.856Z,97726.38
2023-05-13T07:59:46.688Z,97714.88
2023-05-13T08:03:50.059Z,97714.69
2023-05-13T08:07:54.044Z,97711.53
2023-05-13T08:11:58.986Z,97714.22
2023-05-13T08:16:03.024Z,97721.13
2023-05-13T08:20:07.145Z,97717.47
2023-05-13T08:24:10.873Z,97712.16
2023-05-13T08:28:16.086Z,97706.19
2023-05-13T08:32:19.710Z,97702.69
2023-05-13T08:36:23.452Z,97706.72
2023-05-13T08:40:26.996Z,97714.00
2023-05-13T08:44:33.967Z,97708.88
2023-05-13T08:48:39.003Z,97705.53
2023-05-13T08:52:42.340Z,97709.13
2023-05-13T08:56:46.426Z,97713.94
2023-05-13T09:00:54.338Z,97709.00
2023-05-13T09:05:02.232Z,97705.72
2023-05-13T09:09:07.145Z,97705.94
2023-05-13T09:13:10.469Z,97701.06
2023-05-13T09:17:18.117Z,97698.63
2023-05-13T09:21:25.558Z,97699.72
2023-05-13T09:25:29.946Z,97690.38
2023-05-13T09:29:33.875Z,97690.28
2023-05-13T09:33:38.672Z,97690.19
2023-05-13T09:37:42.443Z,97688.97
2023-05-13T09:41:46.144Z,97671.75
2023-05-13T09:45:50.455Z,97674.53
2023-05-13T09:49:57.805Z,97677.44
2023-05-13T09:54:06.890Z,97672.88
2023-05-13T09:58:13.788Z,97665.97
2023-05-13T10:02:19.764Z,97662.22
2023-05-13T10:06:26.222Z,97662.75
2023-05-13T10:10:31.305Z,97658.59
2023-05-13T10:14:35.057Z,97654.06
2023-05-13T10:18:38.933Z,97657.38
2023-05-13T10:22:44.246Z,97666.56
2023-05-13T10:26:51.885Z,97659.19
2023-05-13T10:30:55.742Z,97665.00
2023-05-13T10:35:04.534Z,97660.50
2023-05-13T10:39:34.229Z,97665.63
2023-05-13T10:43:37.967Z,97663.97
2023-05-13T10:47:41.456Z,97658.13
2023-05-13T10:51:48.831Z,97667.94
2023-05-13T10:55:57.860Z,97662.03
2023-05-13T11:00:18.553Z,97671.28
2023-05-13T11:04:22.815Z,97665.34
2023-05-13T11:08:39.433Z,97657.53
2023-05-13T11:12:44.349Z,97657.50
2023-05-13T11:16:49.930Z,97655.25
2023-05-13T11:20:55.208Z,97662.41
2023-05-13T11:25:07.492Z,97666.28
2023-05-13T11:29:12.877Z,97655.78
2023-05-13T11:33:16.531Z,97659.75
2023-05-13T11:37:20.571Z,97659.22
2023-05-13T11:41:25.373Z,97664.28
2023-05-13T11:45:31.205Z,97668.56
2023-05-13T11:49:39.577Z,97674.34
2023-05-13T11:53:43.268Z,97666.41
2023-05-13T11:57:50.575Z,97656.06
2023-05-13T12:02:04.456Z,97649.94
2023-05-13T12:06:08.075Z,97655.47
2023-05-13T12:10:13.204Z,97643.94
2023-05-13T12:14:17.021Z,97648.75
2023-05-13T12:18:21.896Z,97648.25
2023-05-13T12:22:25.450Z,97640.03
2023-05-13T12:26:28.749Z,97643.44
2023-05-13T12:30:36.816Z,97651.13
2023-05-13T12:34:41.597Z,97655.59
2023-05-13T12:38:59.894Z,97648.09
2023-05-13T12:43:04.656Z,97661.50
2023-05-13T12:47:09.246Z,97659.63
2023-05-13T12:51:15.893Z,97663.91
2023-05-13T12:55:19.690Z,97659.38
2023-05-13T12:59:23.449Z,97647.59
2023-05-13T13:03:26.847Z,97641.94
2023-05-13T13:07:31.621Z,97614.34
2023-05-13T13:11:35.323Z,97589.13
2023-05-13T13:15:39.568Z,97621.38
2023-05-13T13:19:43.238Z,97644.63
2023-05-13T13:23:47.753Z,97599.28
2023-05-13T13:27:50.881Z,97636.84
2023-05-13T13:31:54.438Z,97599.34
2023-05-13T13:35:58.546Z,97598.53
2023-05-13T13:40:03.643Z,97650.50
2023-05-13T13:44:06.883Z,97656.69
2023-05-13T13:48:10.195Z,97647.69
2023-05-13T13:52:13.600Z,97650.66
2023-05-13T13:56:18.166Z,97636.78
2023-05-13T14:00:21.593Z,97629.94
2023-05-13T14:04:27.705Z,97656.22
2023-05-13T14:08:31.160Z,97618.66
2023-05-13T14:12:39.568Z,97651.19
2023-05-13T14:16:45.293Z,97652.03
2023-05-13T14:20:50.888Z,97631.81
2023-05-13T14:24:59.261Z,97593.41
2023-05-13T14:29:06.094Z,97663.00
2023-05-13T14:33:12.354Z,97661.34
2023-05-13T14:41:51.354Z,97670.50
2023-05-13T14:45:55.861Z,97671.19
2023-05-13T14:49:59.569Z,97655.00
2023-05-13T14:54:02.577Z,97654.56
2023-05-13T14:58:07.688Z,97661.38
2023-05-13T15:02:14.103Z,97655.56
2023-05-13T15:06:18.014Z,97659.97
2023-05-13T15:10:22.031Z,97661.66
2023-05-13T15:14:26.025Z,97670.34
2023-05-13T15:18:30.641Z,97663.16
2023-05-13T15:22:34.421Z,97677.69
2023-05-13T15:26:37.593Z,97669.88
2023-05-13T15:30:41.231Z,97673.22
2023-05-13T15:34:46.181Z,97672.25
2023-05-13T15:38:49.220Z,97671.22
2023-05-13T15:42:53.096Z,97673.28
2023-05-13T15:46:56.921Z,97670.03
2023-05-13T15:51:03.728Z,97675.31
2023-05-13T15:55:08.505Z,97663.56
2023-05-13T15:59:12.092Z,97677.13
2023-05-13T16:03:17.208Z,97662.72
2023-05-13T16:07:22.208Z,97669.63
2023-05-13T16:11:25.167Z,97656.66
2023-05-13T16:15:28.748Z,97665.38
2023-05-13T16:19:32.043Z,97661.94
2023-05-13T16:23:37.643Z,97673.28
2023-05-13T16:27:44.631Z,97662.94
2023-05-13T16:31:48.403Z,97667.19
2023-05-13T16:35:52.030Z,97679.97
2023-05-13T16:39:57.434Z,97672.47
2023-05-13T16:44:01.014Z,97667.59
2023-05-13T16:48:04.534Z,97664.34
2023-05-13T16:52:08.754Z,97664.28
2023-05-13T16:56:13.764Z,97671.59
2023-05-13T17:00:17.687Z,97667.50
2023-05-13T17:04:22.091Z,97669.94
2023-05-13T17:08:25.652Z,97674.00
2023-05-13T17:12:30.820Z,97675.19
2023-05-13T17:16:34.234Z,97678.38
2023-05-13T17:20:37.521Z,97678.72
2023-05-13T17:24:41.245Z,97667.53
2023-05-13T17:28:46.119Z,97672.13
2023-05-13T17:32:49.105Z,97676.84
2023-05-13T17:36:52.539Z,97685.25
2023-05-13T17:40:55.934Z,97695.69
2023-05-13T17:45:02.394Z,97688.69
2023-05-13T17:49:05.766Z,97696.75
2023-05-13T17:53:09.115Z,97703.56
2023-05-13T17:57:12.176Z,97705.69
2023-05-13T18:01:17.571Z,97705.84
2023-05-13T18:05:21.430Z,97708.97
2023-05-13T18:09:25.045Z,97713.06
2023-05-13T18:13:28.545Z,97711.91
2023-05-13T18:17:33.740Z,97711.38
2023-05-13T18:21:36.721Z,97721.59
2023-05-13T18:25:52.145Z,97722.84
2023-05-13T18:29:58.443Z,97722.16
2023-05-13T18:34:03.389Z,97719.63
2023-05-13T18:38:06.500Z,97720.91
2023-05-13T18:42:10.400Z,97717.41
2023-05-13T18:46:13.607Z,97715.50
2023-05-13T18:50:18.451Z,97729.13
2023-05-13T18:54:21.730Z,97724.44
2023-05-13T18:58:25.278Z,97716.94
2023-05-13T19:02:28.693Z,97728.41
2023-05-13T19:06:34.421Z,97733.84
2023-05-13T19:10:40.196Z,97725.69
2023-05-13T19:14:43.956Z,97740.28
2023-05-13T19:18:47.978Z,97746.44
2023-05-13T19:22:53.183Z,97741.91
2023-05-13T19:26:56.543Z,97753.28
2023-05-13T19:31:00.207Z,97744.03
2023-05-13T19:35:03.814Z,97746.72
2023-05-13T19:39:08.988Z,97748.59
2023-05-13T19:43:12.378Z,97748.84
2023-05-13T19:47:15.624Z,97749.06
2023-05-13T19:51:21.228Z,97748.97
2023-05-13T19:55:27.214Z,97747.22
2023-05-13T19:59:32.425Z,97733.38
2023-05-13T20:03:36.020Z,97729.00
2023-05-13T20:07:39.099Z,97749.66
2023-05-13T20:11:44.848Z,97748.34
2023-05-13T20:15:47.864Z,97748.06
2023-05-13T20:19:52.692Z,97737.25
2023-05-13T20:23:56.687Z,97741.19
2023-05-13T20:28:01.837Z,97740.75
2023-05-13T20:32:05.946Z,97728.19
2023-05-13T20:36:09.406Z,97731.97
2023-05-13T20:40:12.963Z,97733.94
2023-05-13T20:44:17.901Z,97729.88
2023-05-13T20:48:20.995Z,97738.84
2023-05-13T20:52:24.793Z,97735.59
2023-05-13T20:56:28.390Z,97725.47
2023-05-13T21:00:33.621Z,97731.88
2023-05-13T21:04:36.785Z,97724.53
2023-05-13T21:08:40.738Z,97727.31
2023-05-13T21:12:47.876Z,97730.28
2023-05-13T21:16:52.833Z,97718.38
2023-05-13T21:20:55.941Z,97714.28
2023-05-13T21:24:59.780Z,97722.09
2023-05-13T21:29:03.003Z,97719.88
2023-05-13T21:33:08.009Z,97719.19
2023-05-13T21:37:11.313Z,97718.88
2023-05-13T21:41:14.496Z,97720.88
2023-05-13T21:45:17.781Z,97723.00
2023-05-13T21:49:22.725Z,97727.75
2023-05-13T21:53:26.010Z,97730.03
2023-05-13T21:57:31.333Z,97719.31
2023-05-13T22:01:34.645Z,97725.66
2023-05-13T22:05:44.681Z,97723.22
2023-05-13T22:09:49.782Z,97730.41
2023-05-13T22:13:54.708Z,97726.00
2023-05-13T22:17:57.797Z,97721.59
2023-05-13T22:22:02.668Z,97716.38
2023-05-13T22:26:06.438Z,97702.69
2023-05-13T22:30:10.784Z,97706.88
2023-05-13T22:34:14.077Z,97704.91
2023-05-13T22:38:19.053Z,97707.81
2023-05-13T22:42:23.992Z,97694.59
2023-05-13T22:46:27.431Z,97699.31
2023-05-13T22:50:30.854Z,97693.91
2023-05-13T22:54:35.824Z,97695.38
2023-05-13T22:58:39.089Z,97695.19
2023-05-13T23:02:42.607Z,97693.25
2023-05-13T23:06:45.725Z,97690.63
2023-05-13T23:10:50.570Z,97692.25
2023-05-13T23:14:54.061Z,97690.81
2023-05-13T23:18:57.686Z,97686.56
2023-05-13T23:23:01.268Z,97682.69
2023-05-13T23:27:06.735Z,97684.63
2023-05-13T23:31:10.171Z,97676.47
2023-05-13T23:35:14.483Z,97670.78
2023-05-13T23:39:17.692Z,97666.06
2023-05-13T23:43:22.794Z,97666.41
2023-05-13T23:47:26.158Z,97662.50
2023-05-13T23:51:29.574Z,97658.28
2023-05-13T23:55:32.571Z,97663.84
2023-05-13T23:59:37.931Z,97659.25
